Emporia, Kansas
Current Conditions -  °F | °C
As of 9:53 PM on Saturday 24 Jan 2015 (Local Time) from KEMP Reporting Station
Overcast Overcast  
Wind Chill: 45°   Ceiling: 6000
Heat Index: 48°   Visibility: 10mi
Dew Point: 39°   Wind: 7mph
Humidity: 71%   Direction: 270°W
Pressure: 29.77"   Gusts: NA
Location:  38.41°N, 96.18°W
Report Text: KEMP 250353Z AUTO 27006KT 10SM OVC060 09/04 A2977 RMK AO2 RAE29 SLP085 P0000 T00890039
Loading
Personal Weather Stations






























Interactive Weather Map New forecast layout! Learn more

10-Day Weather Forecast

Advertisements
Track Severe Weather on mobile